sensor_id;sensor_type;location;lat;lon;timestamp;P1;durP1;ratioP1;P2;durP2;ratioP2
28245;SDS011;15510;52.512;13.300;2024-02-26T00:01:45;10.63;;;5.90;;
28245;SDS011;15510;52.512;13.300;2024-02-26T00:04:11;14.97;;;5.73;;
28245;SDS011;15510;52.512;13.300;2024-02-26T00:06:38;8.80;;;5.20;;
28245;SDS011;15510;52.512;13.300;2024-02-26T00:09:07;12.17;;;5.60;;
28245;SDS011;15510;52.512;13.300;2024-02-26T00:11:35;9.03;;;5.53;;
28245;SDS011;15510;52.512;13.300;2024-02-26T00:14:01;9.40;;;5.63;;
28245;SDS011;15510;52.512;13.300;2024-02-26T00:16:27;10.17;;;6.07;;
28245;SDS011;15510;52.512;13.300;2024-02-26T00:18:56;10.90;;;6.10;;
28245;SDS011;15510;52.512;13.300;2024-02-26T00:21:22;11.73;;;6.37;;
28245;SDS011;15510;52.512;13.300;2024-02-26T00:23:52;26.03;;;13.13;;
28245;SDS011;15510;52.512;13.300;2024-02-26T00:26:18;15.83;;;7.60;;
28245;SDS011;15510;52.512;13.300;2024-02-26T00:28:46;19.93;;;10.17;;
28245;SDS011;15510;52.512;13.300;2024-02-26T00:31:15;19.00;;;11.33;;
28245;SDS011;15510;52.512;13.300;2024-02-26T00:33:41;12.10;;;6.37;;
28245;SDS011;15510;52.512;13.300;2024-02-26T00:36:09;14.30;;;6.03;;
28245;SDS011;15510;52.512;13.300;2024-02-26T00:38:35;10.73;;;6.07;;
28245;SDS011;15510;52.512;13.300;2024-02-26T00:41:01;14.63;;;7.17;;
28245;SDS011;15510;52.512;13.300;2024-02-26T00:43:27;18.23;;;9.20;;
28245;SDS011;15510;52.512;13.300;2024-02-26T00:45:52;24.47;;;11.07;;
28245;SDS011;15510;52.512;13.300;2024-02-26T00:48:18;12.50;;;6.87;;
28245;SDS011;15510;52.512;13.300;2024-02-26T00:50:46;9.37;;;6.13;;
28245;SDS011;15510;52.512;13.300;2024-02-26T00:53:12;10.67;;;6.27;;
28245;SDS011;15510;52.512;13.300;2024-02-26T00:55:38;9.77;;;6.17;;
28245;SDS011;15510;52.512;13.300;2024-02-26T00:58:03;12.73;;;6.33;;
28245;SDS011;15510;52.512;13.300;2024-02-26T01:00:29;12.40;;;6.67;;
28245;SDS011;15510;52.512;13.300;2024-02-26T01:02:56;10.60;;;6.27;;
28245;SDS011;15510;52.512;13.300;2024-02-26T01:05:21;10.17;;;5.63;;
28245;SDS011;15510;52.512;13.300;2024-02-26T01:07:47;12.40;;;5.53;;
28245;SDS011;15510;52.512;13.300;2024-02-26T01:10:13;12.03;;;6.37;;
28245;SDS011;15510;52.512;13.300;2024-02-26T01:12:39;14.00;;;6.50;;
28245;SDS011;15510;52.512;13.300;2024-02-26T01:15:05;10.73;;;6.30;;
28245;SDS011;15510;52.512;13.300;2024-02-26T01:17:31;12.63;;;6.70;;
28245;SDS011;15510;52.512;13.300;2024-02-26T01:19:57;11.50;;;6.77;;
28245;SDS011;15510;52.512;13.300;2024-02-26T01:22:22;13.30;;;6.70;;
28245;SDS011;15510;52.512;13.300;2024-02-26T01:24:48;10.00;;;6.17;;
28245;SDS011;15510;52.512;13.300;2024-02-26T01:27:17;15.37;;;6.27;;
28245;SDS011;15510;52.512;13.300;2024-02-26T01:29:45;11.17;;;6.67;;
28245;SDS011;15510;52.512;13.300;2024-02-26T01:32:14;11.57;;;6.53;;
28245;SDS011;15510;52.512;13.300;2024-02-26T01:34:40;9.10;;;6.37;;
28245;SDS011;15510;52.512;13.300;2024-02-26T01:37:06;12.40;;;6.30;;
28245;SDS011;15510;52.512;13.300;2024-02-26T01:39:35;11.43;;;6.57;;
28245;SDS011;15510;52.512;13.300;2024-02-26T01:42:01;14.80;;;6.47;;
28245;SDS011;15510;52.512;13.300;2024-02-26T01:44:30;14.20;;;6.73;;
28245;SDS011;15510;52.512;13.300;2024-02-26T01:46:58;14.37;;;6.10;;
28245;SDS011;15510;52.512;13.300;2024-02-26T01:49:26;11.00;;;6.03;;
28245;SDS011;15510;52.512;13.300;2024-02-26T01:51:53;10.60;;;6.80;;
28245;SDS011;15510;52.512;13.300;2024-02-26T01:54:23;10.07;;;6.63;;
28245;SDS011;15510;52.512;13.300;2024-02-26T01:56:49;9.97;;;6.67;;
28245;SDS011;15510;52.512;13.300;2024-02-26T01:59:16;13.80;;;7.00;;
28245;SDS011;15510;52.512;13.300;2024-02-26T02:01:43;15.27;;;8.67;;
28245;SDS011;15510;52.512;13.300;2024-02-26T02:04:10;15.30;;;7.83;;
28245;SDS011;15510;52.512;13.300;2024-02-26T02:06:37;9.47;;;6.40;;
28245;SDS011;15510;52.512;13.300;2024-02-26T02:09:03;13.93;;;7.53;;
28245;SDS011;15510;52.512;13.300;2024-02-26T02:11:32;13.60;;;6.93;;
28245;SDS011;15510;52.512;13.300;2024-02-26T02:13:59;14.00;;;7.10;;
28245;SDS011;15510;52.512;13.300;2024-02-26T02:16:25;11.53;;;7.70;;
28245;SDS011;15510;52.512;13.300;2024-02-26T02:18:50;12.23;;;7.07;;
28245;SDS011;15510;52.512;13.300;2024-02-26T02:21:19;11.97;;;7.43;;
28245;SDS011;15510;52.512;13.300;2024-02-26T02:23:45;13.70;;;7.70;;
28245;SDS011;15510;52.512;13.300;2024-02-26T02:26:14;18.67;;;7.93;;
28245;SDS011;15510;52.512;13.300;2024-02-26T02:28:41;13.43;;;7.43;;
28245;SDS011;15510;52.512;13.300;2024-02-26T02:31:07;11.73;;;7.57;;
28245;SDS011;15510;52.512;13.300;2024-02-26T02:33:38;14.60;;;8.63;;
28245;SDS011;15510;52.512;13.300;2024-02-26T02:36:04;15.00;;;8.30;;
28245;SDS011;15510;52.512;13.300;2024-02-26T02:38:34;10.37;;;7.20;;
28245;SDS011;15510;52.512;13.300;2024-02-26T02:41:00;11.87;;;7.60;;
28245;SDS011;15510;52.512;13.300;2024-02-26T02:43:25;13.00;;;7.40;;
28245;SDS011;15510;52.512;13.300;2024-02-26T02:45:51;11.77;;;7.13;;
28245;SDS011;15510;52.512;13.300;2024-02-26T02:48:17;9.83;;;6.60;;
28245;SDS011;15510;52.512;13.300;2024-02-26T02:50:45;11.87;;;7.93;;
28245;SDS011;15510;52.512;13.300;2024-02-26T02:53:14;11.33;;;7.20;;
28245;SDS011;15510;52.512;13.300;2024-02-26T02:55:41;10.97;;;6.80;;
28245;SDS011;15510;52.512;13.300;2024-02-26T02:58:10;12.97;;;7.50;;
28245;SDS011;15510;52.512;13.300;2024-02-26T03:00:36;14.33;;;8.40;;
28245;SDS011;15510;52.512;13.300;2024-02-26T03:03:02;11.63;;;6.70;;
28245;SDS011;15510;52.512;13.300;2024-02-26T03:05:29;14.50;;;7.33;;
28245;SDS011;15510;52.512;13.300;2024-02-26T03:07:54;13.00;;;7.67;;
28245;SDS011;15510;52.512;13.300;2024-02-26T03:10:20;12.73;;;7.50;;
28245;SDS011;15510;52.512;13.300;2024-02-26T03:12:46;12.80;;;7.00;;
28245;SDS011;15510;52.512;13.300;2024-02-26T03:15:14;10.07;;;7.07;;
28245;SDS011;15510;52.512;13.300;2024-02-26T03:17:40;12.63;;;6.97;;
28245;SDS011;15510;52.512;13.300;2024-02-26T03:20:09;12.93;;;7.67;;
28245;SDS011;15510;52.512;13.300;2024-02-26T03:22:35;12.03;;;6.97;;
28245;SDS011;15510;52.512;13.300;2024-02-26T03:25:03;11.20;;;7.00;;
28245;SDS011;15510;52.512;13.300;2024-02-26T03:27:29;10.43;;;6.83;;
28245;SDS011;15510;52.512;13.300;2024-02-26T03:29:55;13.57;;;6.83;;
28245;SDS011;15510;52.512;13.300;2024-02-26T03:32:24;11.63;;;5.90;;
28245;SDS011;15510;52.512;13.300;2024-02-26T03:34:55;9.10;;;5.90;;
28245;SDS011;15510;52.512;13.300;2024-02-26T03:37:21;9.47;;;5.40;;
28245;SDS011;15510;52.512;13.300;2024-02-26T03:39:50;7.50;;;4.90;;
28245;SDS011;15510;52.512;13.300;2024-02-26T03:42:16;10.43;;;5.63;;
28245;SDS011;15510;52.512;13.300;2024-02-26T03:44:42;7.80;;;6.07;;
28245;SDS011;15510;52.512;13.300;2024-02-26T03:47:08;11.03;;;6.20;;
28245;SDS011;15510;52.512;13.300;2024-02-26T03:49:36;7.37;;;4.97;;
28245;SDS011;15510;52.512;13.300;2024-02-26T03:52:05;7.57;;;5.37;;
28245;SDS011;15510;52.512;13.300;2024-02-26T03:54:31;7.07;;;5.23;;
28245;SDS011;15510;52.512;13.300;2024-02-26T03:56:57;7.83;;;5.30;;
28245;SDS011;15510;52.512;13.300;2024-02-26T03:59:25;6.67;;;4.90;;
28245;SDS011;15510;52.512;13.300;2024-02-26T04:01:51;6.97;;;5.23;;
28245;SDS011;15510;52.512;13.300;2024-02-26T04:04:17;7.13;;;5.53;;
28245;SDS011;15510;52.512;13.300;2024-02-26T04:06:46;6.70;;;4.70;;
28245;SDS011;15510;52.512;13.300;2024-02-26T04:09:15;8.80;;;5.07;;
28245;SDS011;15510;52.512;13.300;2024-02-26T04:11:41;6.87;;;5.33;;
28245;SDS011;15510;52.512;13.300;2024-02-26T04:14:16;7.30;;;4.87;;
28245;SDS011;15510;52.512;13.300;2024-02-26T04:16:44;5.73;;;4.53;;
28245;SDS011;15510;52.512;13.300;2024-02-26T04:19:10;8.73;;;5.03;;
28245;SDS011;15510;52.512;13.300;2024-02-26T04:21:36;6.47;;;4.70;;
28245;SDS011;15510;52.512;13.300;2024-02-26T04:24:02;5.27;;;4.40;;
28245;SDS011;15510;52.512;13.300;2024-02-26T04:26:30;5.30;;;4.70;;
28245;SDS011;15510;52.512;13.300;2024-02-26T04:28:56;6.27;;;4.73;;
28245;SDS011;15510;52.512;13.300;2024-02-26T04:31:24;10.33;;;5.10;;
28245;SDS011;15510;52.512;13.300;2024-02-26T04:33:54;6.13;;;5.40;;
28245;SDS011;15510;52.512;13.300;2024-02-26T04:36:26;7.17;;;5.17;;
28245;SDS011;15510;52.512;13.300;2024-02-26T04:38:51;5.07;;;4.57;;
28245;SDS011;15510;52.512;13.300;2024-02-26T04:41:20;9.03;;;5.47;;
28245;SDS011;15510;52.512;13.300;2024-02-26T04:43:46;6.60;;;5.13;;
28245;SDS011;15510;52.512;13.300;2024-02-26T04:46:12;7.73;;;5.40;;
28245;SDS011;15510;52.512;13.300;2024-02-26T04:48:38;5.80;;;4.93;;
28245;SDS011;15510;52.512;13.300;2024-02-26T04:51:04;8.57;;;5.30;;
28245;SDS011;15510;52.512;13.300;2024-02-26T04:53:37;9.00;;;5.37;;
28245;SDS011;15510;52.512;13.300;2024-02-26T04:56:03;6.33;;;5.20;;
28245;SDS011;15510;52.512;13.300;2024-02-26T04:58:29;7.97;;;5.73;;
28245;SDS011;15510;52.512;13.300;2024-02-26T05:00:55;9.83;;;6.03;;
28245;SDS011;15510;52.512;13.300;2024-02-26T05:03:21;8.67;;;5.97;;
28245;SDS011;15510;52.512;13.300;2024-02-26T05:05:54;8.73;;;6.47;;
28245;SDS011;15510;52.512;13.300;2024-02-26T05:08:22;8.63;;;6.23;;
28245;SDS011;15510;52.512;13.300;2024-02-26T05:10:48;10.63;;;5.47;;
28245;SDS011;15510;52.512;13.300;2024-02-26T05:13:14;13.53;;;7.20;;
28245;SDS011;15510;52.512;13.300;2024-02-26T05:15:40;11.87;;;7.17;;
28245;SDS011;15510;52.512;13.300;2024-02-26T05:18:06;12.67;;;7.80;;
28245;SDS011;15510;52.512;13.300;2024-02-26T05:20:33;15.63;;;7.57;;
28245;SDS011;15510;52.512;13.300;2024-02-26T05:23:01;12.70;;;7.07;;
28245;SDS011;15510;52.512;13.300;2024-02-26T05:25:27;14.40;;;9.30;;
28245;SDS011;15510;52.512;13.300;2024-02-26T05:27:52;10.37;;;7.50;;
28245;SDS011;15510;52.512;13.300;2024-02-26T05:30:18;12.73;;;7.10;;
28245;SDS011;15510;52.512;13.300;2024-02-26T05:32:44;14.07;;;7.47;;
28245;SDS011;15510;52.512;13.300;2024-02-26T05:35:12;15.73;;;7.97;;
28245;SDS011;15510;52.512;13.300;2024-02-26T05:37:38;10.70;;;7.07;;
28245;SDS011;15510;52.512;13.300;2024-02-26T05:40:04;11.33;;;7.20;;
28245;SDS011;15510;52.512;13.300;2024-02-26T05:42:31;11.43;;;7.40;;
28245;SDS011;15510;52.512;13.300;2024-02-26T05:44:57;11.77;;;8.20;;
28245;SDS011;15510;52.512;13.300;2024-02-26T05:47:23;13.37;;;7.37;;
28245;SDS011;15510;52.512;13.300;2024-02-26T05:49:48;12.67;;;6.90;;
28245;SDS011;15510;52.512;13.300;2024-02-26T05:52:14;10.40;;;6.37;;
28245;SDS011;15510;52.512;13.300;2024-02-26T05:54:40;11.43;;;6.83;;
28245;SDS011;15510;52.512;13.300;2024-02-26T05:57:06;8.03;;;5.97;;
28245;SDS011;15510;52.512;13.300;2024-02-26T05:59:31;12.47;;;8.00;;
28245;SDS011;15510;52.512;13.300;2024-02-26T06:02:00;11.50;;;7.13;;
28245;SDS011;15510;52.512;13.300;2024-02-26T06:04:26;11.07;;;6.80;;
28245;SDS011;15510;52.512;13.300;2024-02-26T06:06:51;10.27;;;6.97;;
28245;SDS011;15510;52.512;13.300;2024-02-26T06:09:17;11.77;;;7.07;;
28245;SDS011;15510;52.512;13.300;2024-02-26T06:11:43;11.50;;;6.40;;
28245;SDS011;15510;52.512;13.300;2024-02-26T06:14:09;13.23;;;7.43;;
28245;SDS011;15510;52.512;13.300;2024-02-26T06:16:35;10.37;;;7.23;;
28245;SDS011;15510;52.512;13.300;2024-02-26T06:19:01;12.47;;;7.63;;
28245;SDS011;15510;52.512;13.300;2024-02-26T06:21:27;9.57;;;6.60;;
28245;SDS011;15510;52.512;13.300;2024-02-26T06:23:52;12.00;;;6.83;;
28245;SDS011;15510;52.512;13.300;2024-02-26T06:26:18;12.40;;;7.13;;
28245;SDS011;15510;52.512;13.300;2024-02-26T06:28:53;10.40;;;7.10;;
28245;SDS011;15510;52.512;13.300;2024-02-26T06:31:21;8.40;;;6.60;;
28245;SDS011;15510;52.512;13.300;2024-02-26T06:33:48;11.87;;;7.13;;
28245;SDS011;15510;52.512;13.300;2024-02-26T06:36:15;13.80;;;6.70;;
28245;SDS011;15510;52.512;13.300;2024-02-26T06:38:41;9.87;;;7.33;;
28245;SDS011;15510;52.512;13.300;2024-02-26T06:41:07;13.40;;;7.83;;
28245;SDS011;15510;52.512;13.300;2024-02-26T06:43:32;9.10;;;6.67;;
28245;SDS011;15510;52.512;13.300;2024-02-26T06:45:58;11.37;;;7.27;;
28245;SDS011;15510;52.512;13.300;2024-02-26T06:48:24;9.90;;;7.20;;
28245;SDS011;15510;52.512;13.300;2024-02-26T06:50:50;13.27;;;7.57;;
28245;SDS011;15510;52.512;13.300;2024-02-26T06:53:16;11.20;;;7.30;;
28245;SDS011;15510;52.512;13.300;2024-02-26T06:55:42;18.80;;;7.53;;
28245;SDS011;15510;52.512;13.300;2024-02-26T06:58:08;11.70;;;7.03;;
28245;SDS011;15510;52.512;13.300;2024-02-26T07:00:34;11.93;;;7.63;;
28245;SDS011;15510;52.512;13.300;2024-02-26T07:03:00;12.33;;;7.47;;
28245;SDS011;15510;52.512;13.300;2024-02-26T07:05:27;31.60;;;8.07;;
28245;SDS011;15510;52.512;13.300;2024-02-26T07:07:53;13.63;;;8.23;;
28245;SDS011;15510;52.512;13.300;2024-02-26T07:10:19;11.53;;;7.50;;
28245;SDS011;15510;52.512;13.300;2024-02-26T07:12:44;13.20;;;8.23;;
28245;SDS011;15510;52.512;13.300;2024-02-26T07:15:10;13.63;;;8.10;;
28245;SDS011;15510;52.512;13.300;2024-02-26T07:17:36;14.40;;;8.70;;
28245;SDS011;15510;52.512;13.300;2024-02-26T07:20:02;15.07;;;8.73;;
28245;SDS011;15510;52.512;13.300;2024-02-26T07:22:31;19.40;;;8.40;;
28245;SDS011;15510;52.512;13.300;2024-02-26T07:24:56;14.10;;;9.30;;
28245;SDS011;15510;52.512;13.300;2024-02-26T07:27:22;16.03;;;9.53;;
28245;SDS011;15510;52.512;13.300;2024-02-26T07:29:48;12.33;;;9.43;;
28245;SDS011;15510;52.512;13.300;2024-02-26T07:32:14;15.83;;;10.60;;
28245;SDS011;15510;52.512;13.300;2024-02-26T07:34:41;15.57;;;10.53;;
28245;SDS011;15510;52.512;13.300;2024-02-26T07:37:07;18.93;;;11.10;;
28245;SDS011;15510;52.512;13.300;2024-02-26T07:39:33;17.83;;;10.60;;
28245;SDS011;15510;52.512;13.300;2024-02-26T07:41:59;17.90;;;11.13;;
28245;SDS011;15510;52.512;13.300;2024-02-26T07:44:24;17.43;;;10.67;;
28245;SDS011;15510;52.512;13.300;2024-02-26T07:46:50;18.13;;;10.90;;
28245;SDS011;15510;52.512;13.300;2024-02-26T07:49:16;23.23;;;12.23;;
28245;SDS011;15510;52.512;13.300;2024-02-26T07:51:41;20.80;;;12.20;;
28245;SDS011;15510;52.512;13.300;2024-02-26T07:54:07;18.13;;;12.00;;
28245;SDS011;15510;52.512;13.300;2024-02-26T07:56:33;25.17;;;11.87;;
28245;SDS011;15510;52.512;13.300;2024-02-26T07:58:59;16.57;;;10.87;;
28245;SDS011;15510;52.512;13.300;2024-02-26T08:01:24;15.47;;;10.40;;
28245;SDS011;15510;52.512;13.300;2024-02-26T08:03:52;18.60;;;11.40;;
28245;SDS011;15510;52.512;13.300;2024-02-26T08:06:21;20.93;;;10.93;;
28245;SDS011;15510;52.512;13.300;2024-02-26T08:08:47;14.83;;;10.53;;
28245;SDS011;15510;52.512;13.300;2024-02-26T08:11:14;15.57;;;11.10;;
28245;SDS011;15510;52.512;13.300;2024-02-26T08:13:41;14.20;;;10.47;;
28245;SDS011;15510;52.512;13.300;2024-02-26T08:16:07;15.80;;;10.07;;
28245;SDS011;15510;52.512;13.300;2024-02-26T08:18:32;15.67;;;11.20;;
28245;SDS011;15510;52.512;13.300;2024-02-26T08:20:58;21.20;;;11.40;;
28245;SDS011;15510;52.512;13.300;2024-02-26T08:23:24;23.07;;;11.07;;
28245;SDS011;15510;52.512;13.300;2024-02-26T08:25:51;17.47;;;11.33;;
28245;SDS011;15510;52.512;13.300;2024-02-26T08:28:17;16.77;;;11.23;;
28245;SDS011;15510;52.512;13.300;2024-02-26T08:30:43;21.40;;;12.03;;
28245;SDS011;15510;52.512;13.300;2024-02-26T08:33:09;18.30;;;11.10;;
28245;SDS011;15510;52.512;13.300;2024-02-26T08:35:35;18.50;;;10.10;;
28245;SDS011;15510;52.512;13.300;2024-02-26T08:38:01;18.93;;;11.53;;
28245;SDS011;15510;52.512;13.300;2024-02-26T08:40:28;15.33;;;10.97;;
28245;SDS011;15510;52.512;13.300;2024-02-26T08:42:54;15.67;;;11.13;;
28245;SDS011;15510;52.512;13.300;2024-02-26T08:45:20;15.63;;;10.43;;
28245;SDS011;15510;52.512;13.300;2024-02-26T08:47:46;16.73;;;10.97;;
28245;SDS011;15510;52.512;13.300;2024-02-26T08:50:13;17.93;;;11.43;;
28245;SDS011;15510;52.512;13.300;2024-02-26T08:52:39;17.33;;;11.00;;
28245;SDS011;15510;52.512;13.300;2024-02-26T08:55:05;14.20;;;10.00;;
28245;SDS011;15510;52.512;13.300;2024-02-26T08:57:34;17.30;;;10.53;;
28245;SDS011;15510;52.512;13.300;2024-02-26T09:00:00;16.77;;;10.03;;
28245;SDS011;15510;52.512;13.300;2024-02-26T09:02:26;19.93;;;11.60;;
28245;SDS011;15510;52.512;13.300;2024-02-26T09:04:52;15.90;;;11.10;;
28245;SDS011;15510;52.512;13.300;2024-02-26T09:07:20;16.73;;;10.93;;
28245;SDS011;15510;52.512;13.300;2024-02-26T09:09:46;18.10;;;10.80;;
28245;SDS011;15510;52.512;13.300;2024-02-26T09:12:12;18.40;;;10.27;;
28245;SDS011;15510;52.512;13.300;2024-02-26T09:14:37;17.53;;;10.93;;
28245;SDS011;15510;52.512;13.300;2024-02-26T09:17:03;15.83;;;10.47;;
28245;SDS011;15510;52.512;13.300;2024-02-26T09:19:30;16.33;;;11.33;;
28245;SDS011;15510;52.512;13.300;2024-02-26T09:21:56;14.70;;;10.40;;
28245;SDS011;15510;52.512;13.300;2024-02-26T09:24:23;16.93;;;10.87;;
28245;SDS011;15510;52.512;13.300;2024-02-26T09:26:49;16.17;;;9.98;;
28245;SDS011;15510;52.512;13.300;2024-02-26T09:29:15;16.23;;;10.83;;
28245;SDS011;15510;52.512;13.300;2024-02-26T09:31:41;15.80;;;10.90;;
28245;SDS011;15510;52.512;13.300;2024-02-26T09:34:07;18.70;;;11.67;;
28245;SDS011;15510;52.512;13.300;2024-02-26T09:36:33;14.50;;;10.53;;
28245;SDS011;15510;52.512;13.300;2024-02-26T09:38:59;17.57;;;10.20;;
28245;SDS011;15510;52.512;13.300;2024-02-26T09:41:25;17.50;;;10.00;;
28245;SDS011;15510;52.512;13.300;2024-02-26T09:43:54;14.97;;;9.93;;
28245;SDS011;15510;52.512;13.300;2024-02-26T09:46:22;18.20;;;9.60;;
28245;SDS011;15510;52.512;13.300;2024-02-26T09:48:51;14.10;;;10.00;;
28245;SDS011;15510;52.512;13.300;2024-02-26T09:51:17;17.53;;;9.97;;
28245;SDS011;15510;52.512;13.300;2024-02-26T09:53:44;17.80;;;10.40;;
28245;SDS011;15510;52.512;13.300;2024-02-26T09:56:12;13.67;;;9.80;;
28245;SDS011;15510;52.512;13.300;2024-02-26T09:58:38;17.40;;;9.73;;
28245;SDS011;15510;52.512;13.300;2024-02-26T10:01:10;18.27;;;10.27;;
28245;SDS011;15510;52.512;13.300;2024-02-26T10:03:39;15.93;;;10.90;;
28245;SDS011;15510;52.512;13.300;2024-02-26T10:06:07;13.57;;;9.10;;
28245;SDS011;15510;52.512;13.300;2024-02-26T10:08:34;16.97;;;9.50;;
28245;SDS011;15510;52.512;13.300;2024-02-26T10:11:02;13.65;;;9.98;;
28245;SDS011;15510;52.512;13.300;2024-02-26T10:13:31;16.03;;;10.10;;
28245;SDS011;15510;52.512;13.300;2024-02-26T10:15:57;14.73;;;10.57;;
28245;SDS011;15510;52.512;13.300;2024-02-26T10:18:23;13.50;;;9.00;;
28245;SDS011;15510;52.512;13.300;2024-02-26T10:21:02;11.40;;;8.93;;
28245;SDS011;15510;52.512;13.300;2024-02-26T10:23:28;15.95;;;9.60;;
28245;SDS011;15510;52.512;13.300;2024-02-26T10:25:54;13.90;;;9.47;;
28245;SDS011;15510;52.512;13.300;2024-02-26T10:28:21;12.37;;;8.97;;
28245;SDS011;15510;52.512;13.300;2024-02-26T10:30:47;17.07;;;9.37;;
28245;SDS011;15510;52.512;13.300;2024-02-26T10:33:13;12.77;;;8.60;;
28245;SDS011;15510;52.512;13.300;2024-02-26T10:35:39;14.03;;;9.17;;
28245;SDS011;15510;52.512;13.300;2024-02-26T10:38:10;11.98;;;8.63;;
28245;SDS011;15510;52.512;13.300;2024-02-26T10:40:36;11.68;;;8.93;;
28245;SDS011;15510;52.512;13.300;2024-02-26T10:43:02;15.15;;;8.73;;
28245;SDS011;15510;52.512;13.300;2024-02-26T10:45:28;12.93;;;9.43;;
28245;SDS011;15510;52.512;13.300;2024-02-26T10:47:54;14.88;;;9.35;;
28245;SDS011;15510;52.512;13.300;2024-02-26T10:50:19;12.32;;;7.95;;
28245;SDS011;15510;52.512;13.300;2024-02-26T10:52:45;11.63;;;7.95;;
28245;SDS011;15510;52.512;13.300;2024-02-26T10:55:17;14.13;;;7.57;;
28245;SDS011;15510;52.512;13.300;2024-02-26T10:57:44;12.60;;;8.65;;
28245;SDS011;15510;52.512;13.300;2024-02-26T11:00:13;17.33;;;12.35;;
28245;SDS011;15510;52.512;13.300;2024-02-26T11:02:40;11.90;;;8.23;;
28245;SDS011;15510;52.512;13.300;2024-02-26T11:05:07;12.50;;;9.00;;
28245;SDS011;15510;52.512;13.300;2024-02-26T11:07:34;13.98;;;8.05;;
28245;SDS011;15510;52.512;13.300;2024-02-26T11:10:02;11.60;;;6.88;;
28245;SDS011;15510;52.512;13.300;2024-02-26T11:12:29;12.02;;;7.07;;
28245;SDS011;15510;52.512;13.300;2024-02-26T11:14:56;11.60;;;7.10;;
28245;SDS011;15510;52.512;13.300;2024-02-26T11:17:26;11.48;;;7.25;;
28245;SDS011;15510;52.512;13.300;2024-02-26T11:19:56;12.88;;;8.15;;
28245;SDS011;15510;52.512;13.300;2024-02-26T11:22:26;11.18;;;6.90;;
28245;SDS011;15510;52.512;13.300;2024-02-26T11:24:53;10.35;;;7.00;;
28245;SDS011;15510;52.512;13.300;2024-02-26T11:27:27;8.50;;;6.13;;
28245;SDS011;15510;52.512;13.300;2024-02-26T11:30:04;8.93;;;6.10;;
28245;SDS011;15510;52.512;13.300;2024-02-26T11:32:35;10.40;;;6.53;;
28245;SDS011;15510;52.512;13.300;2024-02-26T11:35:01;10.30;;;7.13;;
28245;SDS011;15510;52.512;13.300;2024-02-26T11:37:29;11.98;;;6.43;;
28245;SDS011;15510;52.512;13.300;2024-02-26T11:39:55;8.77;;;6.93;;
28245;SDS011;15510;52.512;13.300;2024-02-26T11:42:26;9.95;;;7.15;;
28245;SDS011;15510;52.512;13.300;2024-02-26T11:44:53;11.35;;;6.97;;
28245;SDS011;15510;52.512;13.300;2024-02-26T11:47:21;10.30;;;6.60;;
28245;SDS011;15510;52.512;13.300;2024-02-26T11:49:48;26.90;;;7.82;;
28245;SDS011;15510;52.512;13.300;2024-02-26T11:52:14;10.00;;;6.78;;
28245;SDS011;15510;52.512;13.300;2024-02-26T11:57:26;8.80;;;7.45;;
28245;SDS011;15510;52.512;13.300;2024-02-26T11:59:53;9.15;;;6.88;;
28245;SDS011;15510;52.512;13.300;2024-02-26T12:02:38;13.80;;;7.55;;
28245;SDS011;15510;52.512;13.300;2024-02-26T12:07:45;10.05;;;6.70;;
28245;SDS011;15510;52.512;13.300;2024-02-26T12:12:59;10.45;;;7.03;;
28245;SDS011;15510;52.512;13.300;2024-02-26T12:15:31;19.00;;;8.18;;
28245;SDS011;15510;52.512;13.300;2024-02-26T12:18:00;11.88;;;7.72;;
28245;SDS011;15510;52.512;13.300;2024-02-26T12:20:27;12.32;;;7.63;;
28245;SDS011;15510;52.512;13.300;2024-02-26T12:22:53;11.27;;;7.38;;
28245;SDS011;15510;52.512;13.300;2024-02-26T12:25:24;9.85;;;7.45;;
28245;SDS011;15510;52.512;13.300;2024-02-26T12:27:52;12.77;;;7.93;;
28245;SDS011;15510;52.512;13.300;2024-02-26T12:30:21;11.95;;;7.25;;
28245;SDS011;15510;52.512;13.300;2024-02-26T12:32:50;12.05;;;7.72;;
28245;SDS011;15510;52.512;13.300;2024-02-26T12:35:18;10.80;;;7.22;;
28245;SDS011;15510;52.512;13.300;2024-02-26T12:37:44;10.15;;;6.88;;
28245;SDS011;15510;52.512;13.300;2024-02-26T12:40:10;9.15;;;6.70;;
28245;SDS011;15510;52.512;13.300;2024-02-26T12:42:36;11.48;;;7.20;;
28245;SDS011;15510;52.512;13.300;2024-02-26T12:45:06;11.45;;;7.50;;
28245;SDS011;15510;52.512;13.300;2024-02-26T12:47:37;8.40;;;6.20;;
28245;SDS011;15510;52.512;13.300;2024-02-26T12:50:04;7.60;;;5.95;;
28245;SDS011;15510;52.512;13.300;2024-02-26T12:52:31;9.32;;;6.25;;
28245;SDS011;15510;52.512;13.300;2024-02-26T12:54:58;7.63;;;5.75;;
28245;SDS011;15510;52.512;13.300;2024-02-26T12:57:25;7.82;;;6.10;;
28245;SDS011;15510;52.512;13.300;2024-02-26T12:59:52;8.48;;;5.47;;
28245;SDS011;15510;52.512;13.300;2024-02-26T13:02:18;10.05;;;6.00;;
28245;SDS011;15510;52.512;13.300;2024-02-26T13:04:43;9.70;;;5.72;;
28245;SDS011;15510;52.512;13.300;2024-02-26T13:07:09;8.70;;;5.47;;
28245;SDS011;15510;52.512;13.300;2024-02-26T13:09:35;8.43;;;5.95;;
28245;SDS011;15510;52.512;13.300;2024-02-26T13:12:03;6.43;;;5.05;;
28245;SDS011;15510;52.512;13.300;2024-02-26T13:14:30;11.15;;;7.95;;
28245;SDS011;15510;52.512;13.300;2024-02-26T13:16:57;6.45;;;5.35;;
28245;SDS011;15510;52.512;13.300;2024-02-26T13:19:23;11.98;;;8.00;;
28245;SDS011;15510;52.512;13.300;2024-02-26T13:21:49;4.82;;;4.18;;
28245;SDS011;15510;52.512;13.300;2024-02-26T13:24:15;8.77;;;4.43;;
28245;SDS011;15510;52.512;13.300;2024-02-26T13:26:41;7.53;;;4.70;;
28245;SDS011;15510;52.512;13.300;2024-02-26T13:29:07;7.53;;;3.55;;
28245;SDS011;15510;52.512;13.300;2024-02-26T13:31:39;8.38;;;3.33;;
28245;SDS011;15510;52.512;13.300;2024-02-26T13:34:05;9.63;;;3.65;;
28245;SDS011;15510;52.512;13.300;2024-02-26T13:36:31;8.30;;;3.95;;
28245;SDS011;15510;52.512;13.300;2024-02-26T13:38:57;5.78;;;4.40;;
28245;SDS011;15510;52.512;13.300;2024-02-26T13:41:23;5.95;;;3.25;;
28245;SDS011;15510;52.512;13.300;2024-02-26T13:43:52;3.20;;;2.90;;
28245;SDS011;15510;52.512;13.300;2024-02-26T13:46:23;4.00;;;3.15;;
28245;SDS011;15510;52.512;13.300;2024-02-26T13:48:49;3.70;;;2.90;;
28245;SDS011;15510;52.512;13.300;2024-02-26T13:51:15;3.85;;;3.10;;
28245;SDS011;15510;52.512;13.300;2024-02-26T13:53:50;3.88;;;2.53;;
28245;SDS011;15510;52.512;13.300;2024-02-26T13:56:16;2.95;;;2.55;;
28245;SDS011;15510;52.512;13.300;2024-02-26T13:58:44;4.03;;;2.80;;
28245;SDS011;15510;52.512;13.300;2024-02-26T14:01:09;7.35;;;3.60;;
28245;SDS011;15510;52.512;13.300;2024-02-26T14:03:35;3.45;;;2.78;;
28245;SDS011;15510;52.512;13.300;2024-02-26T14:06:01;3.10;;;2.50;;
28245;SDS011;15510;52.512;13.300;2024-02-26T14:08:30;6.40;;;3.05;;
28245;SDS011;15510;52.512;13.300;2024-02-26T14:10:55;7.90;;;2.70;;
28245;SDS011;15510;52.512;13.300;2024-02-26T14:13:21;3.50;;;2.60;;
28245;SDS011;15510;52.512;13.300;2024-02-26T14:15:47;6.20;;;3.38;;
28245;SDS011;15510;52.512;13.300;2024-02-26T14:18:13;4.88;;;2.85;;
28245;SDS011;15510;52.512;13.300;2024-02-26T14:20:39;5.35;;;2.80;;
28245;SDS011;15510;52.512;13.300;2024-02-26T14:23:05;6.75;;;2.38;;
28245;SDS011;15510;52.512;13.300;2024-02-26T14:25:32;9.32;;;3.22;;
28245;SDS011;15510;52.512;13.300;2024-02-26T14:27:57;6.00;;;2.88;;
28245;SDS011;15510;52.512;13.300;2024-02-26T14:30:24;6.05;;;2.80;;